Great Hebei — VRFU6 — position and weather

sailwx.info

Track history (hours):
 
Tides and Currents Weather Stations Pressure Air Temp Water Temp Dewpoint Dewpoint Depression Visibility Wind Speed Wind Dir Waves Ship Positions

Great Hebei

Last reported at 2017-Dec-08 08:06 UTC. Time now 2017-Dec-11 19:16 UTC.
Position N 22°35' E 119°47'.

Length 295 m; draft 8.7 m.

Type: Cargo ship. MMSI: 477617100.

Date/timePositionNaut miles runAvg speedWind from/ knotsBaromVisibWave heightAir tempDewpointWater temp
2017-Dec-08 08:06N 22°35' E 119°47'213.1
2017-Dec-08 07:59N 22°36' E 119°47'613.5
2017-Dec-08 07:30N 22°43' E 119°48'713.6
2017-Dec-08 06:59N 22°50' E 119°49'714.0
2017-Dec-08 06:30N 22°56' E 119°51'1213.1
2017-Dec-08 05:33N 23°09' E 119°51'112.8
2017-Dec-08 05:27N 23°10' E 119°51'812.4
2017-Dec-08 04:50N 23°18' E 119°52'411.6
2017-Dec-08 04:30N 23°21' E 119°52'711.3
2017-Dec-08 03:51N 23°29' E 119°52'510.8
2017-Dec-08 03:25N 23°34' E 119°52'511.9
2017-Dec-08 03:00N 23°38' E 119°53'8513.7
2017-Dec-07 20:48N 24°57' E 120°29'2413.5
2017-Dec-07 19:03N 25°17' E 120°43'113.7
2017-Dec-07 19:00N 25°18' E 120°43'714.0
2017-Dec-07 18:31N 25°23' E 120°48'  
2017-Dec-03 23:06N 31°47' E 121°01'110.6
2017-Dec-03 23:00N 31°46' E 121°02'610.3
2017-Dec-03 22:28N 31°43' E 121°08'4 8.8
2017-Dec-03 22:00N 31°41' E 121°11'4 7.9
2017-Dec-03 21:30N 31°38' E 121°15'0 0.8
2017-Dec-03 20:57N 31°38' E 121°16'0 0.0
2017-Dec-03 20:30N 31°38' E 121°16'0 0.0
2017-Dec-03 20:00N 31°38' E 121°16'0 0.1
2017-Dec-03 19:27N 31°38' E 121°16'0 0.4
2017-Dec-03 18:45N 31°38' E 121°15'0 0.1
2017-Dec-03 18:30N 31°38' E 121°15'0 0.1
2017-Dec-03 18:00N 31°38' E 121°15'0 0.1
2017-Dec-03 17:24N 31°38' E 121°15'0 0.0
2017-Dec-03 16:51N 31°38' E 121°15'0 0.0
2017-Dec-03 16:30N 31°38' E 121°15'0 0.0
2017-Dec-03 16:00N 31°38' E 121°15'0 0.1
2017-Dec-03 15:18N 31°38' E 121°15'0 0.6
2017-Dec-03 14:48N 31°38' E 121°16'0 0.2
2017-Dec-03 14:27N 31°38' E 121°16'0 0.1
2017-Dec-03 13:42N 31°38' E 121°16'0 0.0
2017-Dec-03 13:06N 31°38' E 121°16'0 0.1
2017-Dec-03 13:00N 31°38' E 121°16'0 0.0
2017-Dec-03 12:27N 31°38' E 121°16'0 0.0
2017-Dec-03 11:57N 31°38' E 121°16'0 0.0
2017-Dec-03 11:21N 31°38' E 121°16'0 0.1
2017-Dec-03 10:42N 31°38' E 121°16'0 0.0
2017-Dec-03 10:24N 31°38' E 121°16'0 0.0
2017-Dec-03 10:00N 31°38' E 121°16'0 0.0
2017-Dec-03 09:30N 31°38' E 121°16'0 0.0
2017-Dec-03 09:00N 31°38' E 121°16'0 0.0
2017-Dec-03 08:24N 31°38' E 121°16'0 0.1
2017-Dec-03 07:54N 31°38' E 121°16'0 0.1
2017-Dec-03 07:30N 31°38' E 121°16'1 1.1
2017-Dec-03 07:00N 31°38' E 121°16'2 4.2
2017-Dec-03 06:30N 31°36' E 121°18'4 7.7
2017-Dec-03 05:59N 31°33' E 121°20'510.4
2017-Dec-03 05:30N 31°30' E 121°25'510.1
2017-Dec-03 05:00N 31°26' E 121°29'4 7.6
2017-Dec-03 04:30N 31°24' E 121°33'13 9.8
2017-Dec-03 03:09N 31°18' E 121°47'2 9.4
2017-Dec-03 02:57N 31°17' E 121°49'5 9.3
2017-Dec-03 02:28N 31°16' E 121°54'711.4
2017-Dec-03 01:52N 31°15' E 122°02'411.0
2017-Dec-03 01:30N 31°14' E 122°06'811.9
2017-Dec-03 00:52N 31°09' E 122°13'410.8
2017-Dec-03 00:29N 31°07' E 122°17'5 9.0
2017-Dec-02 23:58N 31°06' E 122°23'  
Track history (hours):
 
Tides and Currents Weather Stations Pressure Air Temp Water Temp Dewpoint Dewpoint Depression Visibility Wind Speed Wind Dir Waves Ship Positions

Great Hebei

Last reported at 2017-Dec-08 08:06 UTC. Time now 2017-Dec-11 19:16 UTC.
Position N 22°35' E 119°47'.

Length 295 m; draft 8.7 m.

Type: Cargo ship. MMSI: 477617100.

Date/timePositionNaut miles runAvg speedWind from/ knotsBaromVisibWave heightAir tempDewpointWater temp
2017-Dec-08 08:06N 22°35' E 119°47'213.1
2017-Dec-08 07:59N 22°36' E 119°47'613.5
2017-Dec-08 07:30N 22°43' E 119°48'713.6
2017-Dec-08 06:59N 22°50' E 119°49'714.0
2017-Dec-08 06:30N 22°56' E 119°51'1213.1
2017-Dec-08 05:33N 23°09' E 119°51'112.8
2017-Dec-08 05:27N 23°10' E 119°51'812.4
2017-Dec-08 04:50N 23°18' E 119°52'411.6
2017-Dec-08 04:30N 23°21' E 119°52'711.3
2017-Dec-08 03:51N 23°29' E 119°52'510.8
2017-Dec-08 03:25N 23°34' E 119°52'511.9
2017-Dec-08 03:00N 23°38' E 119°53'8513.7
2017-Dec-07 20:48N 24°57' E 120°29'2413.5
2017-Dec-07 19:03N 25°17' E 120°43'113.7
2017-Dec-07 19:00N 25°18' E 120°43'714.0
2017-Dec-07 18:31N 25°23' E 120°48'  
2017-Dec-03 23:06N 31°47' E 121°01'110.6
2017-Dec-03 23:00N 31°46' E 121°02'610.3
2017-Dec-03 22:28N 31°43' E 121°08'4 8.8
2017-Dec-03 22:00N 31°41' E 121°11'4 7.9
2017-Dec-03 21:30N 31°38' E 121°15'0 0.8
2017-Dec-03 20:57N 31°38' E 121°16'0 0.0
2017-Dec-03 20:30N 31°38' E 121°16'0 0.0
2017-Dec-03 20:00N 31°38' E 121°16'0 0.1
2017-Dec-03 19:27N 31°38' E 121°16'0 0.4
2017-Dec-03 18:45N 31°38' E 121°15'0 0.1
2017-Dec-03 18:30N 31°38' E 121°15'0 0.1
2017-Dec-03 18:00N 31°38' E 121°15'0 0.1
2017-Dec-03 17:24N 31°38' E 121°15'0 0.0
2017-Dec-03 16:51N 31°38' E 121°15'0 0.0
2017-Dec-03 16:30N 31°38' E 121°15'0 0.0
2017-Dec-03 16:00N 31°38' E 121°15'0 0.1
2017-Dec-03 15:18N 31°38' E 121°15'0 0.6
2017-Dec-03 14:48N 31°38' E 121°16'0 0.2
2017-Dec-03 14:27N 31°38' E 121°16'0 0.1
2017-Dec-03 13:42N 31°38' E 121°16'0 0.0
2017-Dec-03 13:06N 31°38' E 121°16'0 0.1
2017-Dec-03 13:00N 31°38' E 121°16'0 0.0
2017-Dec-03 12:27N 31°38' E 121°16'0 0.0
2017-Dec-03 11:57N 31°38' E 121°16'0 0.0
2017-Dec-03 11:21N 31°38' E 121°16'0 0.1
2017-Dec-03 10:42N 31°38' E 121°16'0 0.0
2017-Dec-03 10:24N 31°38' E 121°16'0 0.0
2017-Dec-03 10:00N 31°38' E 121°16'0 0.0
2017-Dec-03 09:30N 31°38' E 121°16'0 0.0
2017-Dec-03 09:00N 31°38' E 121°16'0 0.0
2017-Dec-03 08:24N 31°38' E 121°16'0 0.1
2017-Dec-03 07:54N 31°38' E 121°16'0 0.1
2017-Dec-03 07:30N 31°38' E 121°16'1 1.1
2017-Dec-03 07:00N 31°38' E 121°16'2 4.2
2017-Dec-03 06:30N 31°36' E 121°18'4 7.7
2017-Dec-03 05:59N 31°33' E 121°20'510.4
2017-Dec-03 05:30N 31°30' E 121°25'510.1
2017-Dec-03 05:00N 31°26' E 121°29'4 7.6
2017-Dec-03 04:30N 31°24' E 121°33'13 9.8
2017-Dec-03 03:09N 31°18' E 121°47'2 9.4
2017-Dec-03 02:57N 31°17' E 121°49'5 9.3
2017-Dec-03 02:28N 31°16' E 121°54'711.4
2017-Dec-03 01:52N 31°15' E 122°02'411.0
2017-Dec-03 01:30N 31°14' E 122°06'811.9
2017-Dec-03 00:52N 31°09' E 122°13'410.8
2017-Dec-03 00:29N 31°07' E 122°17'5 9.0
2017-Dec-02 23:58N 31°06' E 122°23'  

Dump ship's entire track history